Observation data for Saint Lawrence on 12/09/2018      Previous  Date       Current Mesonet Observations  Soil Data  Daily Summary Page  Observations in Plain Language
KST1 090600Z 32008KT 04/01 A303 RMK A01 T00380007  RH  081%=      5-min Rain = 0
KST1 090605Z 32008KT 04/01 A303 RMK A01 T00370007  RH  082%=      5-min Rain = 0
KST1 090610Z 33008KT 04/01 A303 RMK A01 T00360007  RH  082%=      5-min Rain = 0
KST1 090615Z 34007KT 04/01 A303 RMK A01 T00350006  RH  083%=      5-min Rain = 0
KST1 090620Z 34006KT 03/01 A303 RMK A01 T00320006  RH  084%=      5-min Rain = 0
KST1 090625Z 34006KT 03/01 A303 RMK A01 T00300006  RH  085%=      5-min Rain = 0
KST1 090630Z 34006KT 03/01 A303 RMK A01 T00270005  RH  086%=      5-min Rain = 0
KST1 090635Z 34005KT 03/01 A303 RMK A01 T00260005  RH  087%=      5-min Rain = 0
KST1 090640Z 34005KT 02/00 A3029 RMK A01 T00240003  RH  087%=      5-min Rain = 0
KST1 090645Z 34006KT 02/00 A3029 RMK A01 T00230003  RH  088%=      5-min Rain = 0
KST1 090650Z 34006KT 02/00 A3029 RMK A01 T00210002  RH  088%=      5-min Rain = 0
KST1 090655Z 34005KT 02/00 A3029 RMK A01 T00210002  RH  089%=      5-min Rain = 0
KST1 090700Z 35006KT 02/00 A3029 RMK A01 T00180001  RH  089%=      5-min Rain = 0
KST1 090705Z 35005KT 02/00 A3029 RMK A01 T001700-0  RH  089%=      5-min Rain = 0
KST1 090710Z 34004KT 02/00 A3029 RMK A01 T00170000  RH  090%=      5-min Rain = 0
KST1 090715Z 33004KT 02/00 A3029 RMK A01 T00170001  RH  090%=      5-min Rain = 0
KST1 090720Z 33003KT 02/00 A3028 RMK A01 T00160000  RH  090%=      5-min Rain = 0
KST1 090725Z 34003KT 02/M00 A3028 RMK A01 T00151001  RH  091%=      5-min Rain = 0
KST1 090730Z 33003KT 01/M00 A3028 RMK A01 T00141001  RH  091%=      5-min Rain = 0
KST1 090735Z 33004KT 01/M00 A3028 RMK A01 T00141001  RH  091%=      5-min Rain = 0
KST1 090740Z 33003KT 01/M00 A3028 RMK A01 T00131002  RH  091%=      5-min Rain = 0
KST1 090745Z 33003KT 01/M00 A3028 RMK A01 T00131001  RH  091%=      5-min Rain = 0
KST1 090750Z 34003KT 01/M00 A3028 RMK A01 T00131002  RH  091%=      5-min Rain = 0
KST1 090755Z 34003KT 01/M00 A3028 RMK A01 T00121002  RH  091%=      5-min Rain = 0
KST1 090800Z 33002KT 01/M00 A3028 RMK A01 T00121002  RH  091%=      5-min Rain = 0
KST1 090805Z 33002KT 01/M00 A3028 RMK A01 T00131001  RH  092%=      5-min Rain = 0
KST1 090810Z 32002KT 01/M00 A3028 RMK A01 T00131001  RH  092%=      5-min Rain = 0
KST1 090815Z 32003KT 01/M00 A3028 RMK A01 T00121001  RH  092%=      5-min Rain = 0
KST1 090820Z 31002KT 01/M00 A3028 RMK A01 T00101003  RH  092%=      5-min Rain = 0
KST1 090825Z 31002KT 01/M00 A3028 RMK A01 T00111002  RH  092%=      5-min Rain = 0
KST1 090830Z 29002KT 01/M00 A3028 RMK A01 T00101002  RH  092%=      5-min Rain = 0
KST1 090835Z 28002KT 01/M01 A3028 RMK A01 T00071006  RH  092%=      5-min Rain = 0
KST1 090840Z 28002KT 01/M01 A3028 RMK A01 T00061006  RH  092%=      5-min Rain = 0
KST1 090845Z 29003KT 00/M01 A3028 RMK A01 T00041008  RH  093%=      5-min Rain = 0
KST1 090850Z 30003KT 00/M01 A3028 RMK A01 T00041008  RH  093%=      5-min Rain = 0
KST1 090855Z 31003KT 00/M01 A3028 RMK A01 T00041007  RH  093%=      5-min Rain = 0
KST1 090900Z 33004KT 00/M01 A3028 RMK A01 T00041007  RH  093%=      5-min Rain = 0
KST1 090905Z 33004KT 00/M01 A3028 RMK A01 T00041008  RH  093%=      5-min Rain = 0
KST1 090910Z 32004KT 00/M01 A3028 RMK A01 T00041007  RH  093%=      5-min Rain = 0
KST1 090915Z 32004KT 00/M01 A3028 RMK A01 T00031008  RH  093%=      5-min Rain = 0
KST1 090920Z 32004KT 00/M01 A3028 RMK A01 T00031008  RH  094%=      5-min Rain = 0
KST1 090925Z 33004KT 00/M01 A3028 RMK A01 T00031008  RH  094%=      5-min Rain = 0
KST1 090930Z 34005KT 00/M01 A3028 RMK A01 T00031007  RH  094%=      5-min Rain = 0
KST1 090935Z 35005KT 00/M01 A3029 RMK A01 T00021009  RH  094%=      5-min Rain = 0
KST1 090940Z 00005KT 00/M01 A3028 RMK A01 T00011009  RH  094%=      5-min Rain = 0
KST1 090945Z 01006KT 00/M01 A3028 RMK A01 T00011009  RH  094%=      5-min Rain = 0
KST1 090950Z 01005KT 00/M01 A3028 RMK A01 T00021008  RH  094%=      5-min Rain = 0
KST1 090955Z 00004KT 00/M01 A3028 RMK A01 T00021008  RH  094%=      5-min Rain = 0
KST1 091000Z 01004KT 00/M01 A3028 RMK A01 T00011008  RH  094%=      5-min Rain = 0
KST1 091005Z 00004KT 00/M01 A3028 RMK A01 T00011008  RH  095%=      5-min Rain = 0
KST1 091010Z 01004KT 00/M01 A3028 RMK A01 T00011009  RH  095%=      5-min Rain = 0
KST1 091015Z 00004KT 00/01 A3028 RMK A01 T000000-9  RH  095%=      5-min Rain = 0
KST1 091020Z 35004KT 00/01 A3029 RMK A01 T00-000-9  RH  095%=      5-min Rain = 0
KST1 091025Z 34004KT 00/M01 A3029 RMK A01 T00011008  RH  095%=      5-min Rain = 0
KST1 091030Z 34004KT 00/M01 A3029 RMK A01 T00021007  RH  095%=      5-min Rain = 0
KST1 091035Z 33004KT 00/M01 A3029 RMK A01 T00021007  RH  095%=      5-min Rain = 0
KST1 091040Z 33003KT 00/M01 A3028 RMK A01 T00011007  RH  095%=      5-min Rain = 0
KST1 091045Z 34003KT 00/M01 A3028 RMK A01 T00011007  RH  095%=      5-min Rain = 0
KST1 091050Z 33003KT M00/M01 A3029 RMK A01 T10011009  RH  095%=      5-min Rain = 0
KST1 091055Z 33003KT M00/M01 A3029 RMK A01 T10011009  RH  095%=      5-min Rain = 0
KST1 091100Z 34004KT 00/01 A3029 RMK A01 T000000-7  RH  095%=      5-min Rain = 0
KST1 091105Z 35004KT 00/01 A3029 RMK A01 T00-000-8  RH  095%=      5-min Rain = 0
KST1 091110Z 35004KT M00/M01 A3029 RMK A01 T10021010  RH  095%=      5-min Rain = 0
KST1 091115Z 34004KT M00/M01 A3029 RMK A01 T10021010  RH  096%=      5-min Rain = 0
KST1 091120Z 33004KT M00/M01 A3029 RMK A01 T10021009  RH  096%=      5-min Rain = 0
KST1 091125Z 33004KT M00/M01 A303 RMK A01 T10011008  RH  096%=      5-min Rain = 0
KST1 091130Z 33004KT M00/M01 A303 RMK A01 T10011008  RH  096%=      5-min Rain = 0
KST1 091135Z 34004KT 00/01 A303 RMK A01 T00-000-8  RH  096%=      5-min Rain = 0
KST1 091140Z 34005KT M00/M01 A303 RMK A01 T10021009  RH  096%=      5-min Rain = 0
KST1 091145Z 34005KT M00/M01 A303 RMK A01 T10041012  RH  096%=      5-min Rain = 0
KST1 091150Z 33004KT M00/M01 A303 RMK A01 T10041012  RH  096%=      5-min Rain = 0
KST1 091155Z 33004KT M00/M01 A3031 RMK A01 T10021009  RH  096%=      5-min Rain = 0
KST1 091200Z 33004KT M00/M01 A3031 RMK A01 T10021009  RH  096%=      5-min Rain = 0
KST1 091205Z 34004KT M00/M01 A3031 RMK A01 T10021009  RH  096%=      5-min Rain = 0
KST1 091210Z 34004KT M00/M01 A3031 RMK A01 T10041011  RH  096%=      5-min Rain = 0
KST1 091215Z 34004KT M01/M01 A3031 RMK A01 T10051012  RH  096%=      5-min Rain = 0
KST1 091220Z 35004KT M01/M01 A3031 RMK A01 T10051012  RH  096%=      5-min Rain = 0
KST1 091225Z 35004KT M01/M01 A3031 RMK A01 T10061013  RH  096%=      5-min Rain = 0
KST1 091230Z 35003KT M01/M01 A3032 RMK A01 T10061014  RH  096%=      5-min Rain = 0
KST1 091235Z 35003KT M01/M01 A3032 RMK A01 T10061014  RH  096%=      5-min Rain = 0
KST1 091240Z 36003KT M01/M01 A3032 RMK A01 T10061013  RH  096%=      5-min Rain = 0
KST1 091245Z 34003KT M01/M01 A3032 RMK A01 T10061013  RH  096%=      5-min Rain = 0
KST1 091250Z 00003KT M01/M01 A3032 RMK A01 T10061013  RH  096%=      5-min Rain = 0
KST1 091255Z 01003KT M01/M01 A3032 RMK A01 T10061014  RH  096%=      5-min Rain = 0
KST1 091300Z 00003KT M01/M02 A3033 RMK A01 T10071015  RH  096%=      5-min Rain = 0
KST1 091305Z 35003KT M01/M02 A3033 RMK A01 T10081016  RH  096%=      5-min Rain = 0
KST1 091310Z 00002KT M01/M02 A3033 RMK A01 T10091016  RH  096%=      5-min Rain = 0
KST1 091315Z 01003KT M01/M02 A3033 RMK A01 T10081016  RH  096%=      5-min Rain = 0
KST1 091320Z 02003KT M01/M02 A3033 RMK A01 T10081015  RH  096%=      5-min Rain = 0
KST1 091325Z 02004KT M01/M02 A3034 RMK A01 T10071015  RH  096%=      5-min Rain = 0
KST1 091330Z 01004KT M01/M02 A3034 RMK A01 T10091016  RH  096%=      5-min Rain = 0
KST1 091335Z 01004KT M01/M02 A3035 RMK A01 T10091017  RH  096%=      5-min Rain = 0
KST1 091340Z 35004KT M01/M02 A3035 RMK A01 T10091017  RH  096%=      5-min Rain = 0
KST1 091345Z 35004KT M01/M02 A3035 RMK A01 T10081016  RH  096%=      5-min Rain = 0
KST1 091350Z 35004KT M01/M02 A3035 RMK A01 T10091016  RH  095%=      5-min Rain = 0
KST1 091355Z 35004KT M01/M02 A3035 RMK A01 T10081016  RH  095%=      5-min Rain = 0
KST1 091400Z 00005KT M01/M02 A3035 RMK A01 T10071015  RH  095%=      5-min Rain = 0
KST1 091405Z 01005KT M01/M01 A3035 RMK A01 T10051013  RH  095%=      5-min Rain = 0
KST1 091410Z 01004KT M00/M01 A3035 RMK A01 T10031011  RH  095%=      5-min Rain = 0
KST1 091415Z 01004KT M00/M01 A3035 RMK A01 T10021010  RH  095%=      5-min Rain = 0
KST1 091420Z 01004KT M00/M01 A3036 RMK A01 T10011010  RH  095%=      5-min Rain = 0
KST1 091425Z 01004KT 00/01 A3036 RMK A01 T00-000-9  RH  095%=      5-min Rain = 0
KST1 091430Z 01004KT 00/01 A3036 RMK A01 T000000-9  RH  095%=      5-min Rain = 0
KST1 091435Z 01004KT 00/M01 A3036 RMK A01 T00021008  RH  094%=      5-min Rain = 0
KST1 091440Z 01004KT 00/M01 A3037 RMK A01 T00041006  RH  094%=      5-min Rain = 0
KST1 091445Z 02004KT 01/M01 A3037 RMK A01 T00051006  RH  094%=      5-min Rain = 0
KST1 091450Z 02004KT 01/M01 A3037 RMK A01 T00061006  RH  093%=      5-min Rain = 0
KST1 091455Z 02005KT 01/M01 A3037 RMK A01 T00061007  RH  092%=      5-min Rain = 0
KST1 091500Z 02005KT 01/M01 A3037 RMK A01 T00071007  RH  091%=      5-min Rain = 0
KST1 091505Z 02005KT 01/M01 A3037 RMK A01 T00101006  RH  090%=      5-min Rain = 0
KST1 091510Z 02005KT 01/M01 A3038 RMK A01 T00111006  RH  089%=      5-min Rain = 0
KST1 091515Z 02005KT 01/M01 A3038 RMK A01 T00131007  RH  087%=      5-min Rain = 0
KST1 091520Z 02007KT 01/M01 A3038 RMK A01 T00131010  RH  086%=      5-min Rain = 0
KST1 091525Z 02008KT 01/M02 A3038 RMK A01 T00131015  RH  083%=      5-min Rain = 0
KST1 091530Z 03007KT 02/M02 A3039 RMK A01 T00151016  RH  081%=      5-min Rain = 0
KST1 091535Z 02006KT 02/M01 A3039 RMK A01 T00161014  RH  081%=      5-min Rain = 0
KST1 091540Z 03007KT 02/M02 A3039 RMK A01 T00171015  RH  080%=      5-min Rain = 0
KST1 091545Z 03007KT 02/M02 A3039 RMK A01 T00181018  RH  078%=      5-min Rain = 0
KST1 091550Z 03007KT 02/M02 A3039 RMK A01 T00201018  RH  077%=      5-min Rain = 0
KST1 091555Z 03007KT 02/M02 A3039 RMK A01 T00221019  RH  075%=      5-min Rain = 0
KST1 091600Z 03007KT 02/M02 A304 RMK A01 T00221021  RH  074%=      5-min Rain = 0
KST1 091605Z 03006KT 03/M02 A304 RMK A01 T00251018  RH  074%=      5-min Rain = 0
KST1 091610Z 03006KT 03/M02 A304 RMK A01 T00261019  RH  073%=      5-min Rain = 0
KST1 091615Z 03006KT 03/M02 A304 RMK A01 T00271019  RH  072%=      5-min Rain = 0
KST1 091620Z 03006KT 03/M02 A3041 RMK A01 T00281020  RH  071%=      5-min Rain = 0
KST1 091625Z 03006KT 03/M02 A304 RMK A01 T00291018  RH  072%=      5-min Rain = 0
KST1 091630Z 03006KT 03/M02 A304 RMK A01 T00321018  RH  071%=      5-min Rain = 0
KST1 091635Z 03006KT 03/M02 A304 RMK A01 T00331018  RH  070%=      5-min Rain = 0
KST1 091640Z 04007KT 04/M02 A304 RMK A01 T00351021  RH  068%=      5-min Rain = 0.01
KST1 091645Z 03007KT 04/M03 A304 RMK A01 T00351028  RH  064%=      5-min Rain = 0
KST1 091650Z 03007KT 04/M03 A304 RMK A01 T00381026  RH  064%=      5-min Rain = 0
KST1 091655Z 04007KT 04/M03 A304 RMK A01 T00401026  RH  063%=      5-min Rain = 0
KST1 091700Z 04006KT 04/M03 A304 RMK A01 T00401031  RH  061%=      5-min Rain = 0
KST1 091705Z 03005KT 04/M03 A304 RMK A01 T00411027  RH  062%=      5-min Rain = 0
KST1 091710Z 02006KT 05/M03 A304 RMK A01 T00451026  RH  061%=      5-min Rain = 0
KST1 091715Z 03007KT 05/M03 A304 RMK A01 T00461031  RH  058%=      5-min Rain = 0
KST1 091720Z 04006KT 05/M03 A304 RMK A01 T00471029  RH  058%=      5-min Rain = 0
KST1 091725Z 02004KT 05/M03 A304 RMK A01 T00481026  RH  059%=      5-min Rain = 0
KST1 091730Z 01005KT 05/M03 A304 RMK A01 T00481031  RH  057%=      5-min Rain = 0
KST1 091735Z 01004KT 05/M02 A3039 RMK A01 T00521022  RH  059%=      5-min Rain = 0
KST1 091740Z 01005KT 05/M03 A3039 RMK A01 T00501028  RH  058%=      5-min Rain = 0
KST1 091745Z 02005KT 05/M03 A304 RMK A01 T00521025  RH  058%=      5-min Rain = 0
KST1 091750Z 03004KT 06/M01 A3039 RMK A01 T00571013  RH  061%=      5-min Rain = 0
KST1 091755Z 03004KT 06/M02 A3039 RMK A01 T00551021  RH  059%=      5-min Rain = 0
KST1 091800Z 03005KT 06/M02 A3039 RMK A01 T00561018  RH  059%=      5-min Rain = 0
KST1 091805Z 02005KT 06/M01 A3039 RMK A01 T00601011  RH  061%=      5-min Rain = 0
KST1 091810Z 03006KT 06/M02 A3038 RMK A01 T00591017  RH  059%=      5-min Rain = 0
KST1 091815Z 02006KT 06/M02 A3038 RMK A01 T00591019  RH  058%=      5-min Rain = 0
KST1 091820Z 01006KT 06/M02 A3038 RMK A01 T00601018  RH  058%=      5-min Rain = 0
KST1 091825Z 02005KT 06/M01 A3038 RMK A01 T00621014  RH  059%=      5-min Rain = 0
KST1 091830Z 02005KT 06/M01 A3037 RMK A01 T00631013  RH  059%=      5-min Rain = 0
KST1 091835Z 00005KT 06/M02 A3037 RMK A01 T00611018  RH  057%=      5-min Rain = 0
KST1 091840Z 01006KT 07/M01 A3037 RMK A01 T00651011  RH  059%=      5-min Rain = 0
KST1 091845Z 35006KT 06/M02 A3036 RMK A01 T00601022  RH  056%=      5-min Rain = 0
KST1 091850Z 01007KT 06/M01 A3036 RMK A01 T00641013  RH  059%=      5-min Rain = 0
KST1 091855Z 00007KT 07/M01 A3036 RMK A01 T00651011  RH  059%=      5-min Rain = 0
KST1 091900Z 35006G12KT 07/M02 A3035 RMK A01 T00651016  RH  057%=      5-min Rain = 0
KST1 091905Z 00006KT 07/M02 A3035 RMK A01 T00651015  RH  057%=      5-min Rain = 0
KST1 091910Z 36005KT 07/M01 A3035 RMK A01 T00661013  RH  058%=      5-min Rain = 0
KST1 091915Z 01005KT 07/M01 A3035 RMK A01 T00671014  RH  057%=      5-min Rain = 0
KST1 091920Z 01005KT 07/M02 A3035 RMK A01 T00661018  RH  056%=      5-min Rain = 0
KST1 091925Z 01006KT 07/M01 A3035 RMK A01 T00671012  RH  058%=      5-min Rain = 0
KST1 091930Z 36006KT 07/M01 A3035 RMK A01 T00681013  RH  057%=      5-min Rain = 0
KST1 091935Z 35007KT 07/M01 A3035 RMK A01 T00691009  RH  058%=      5-min Rain = 0
KST1 091940Z 35007KT 07/M01 A3034 RMK A01 T00701009  RH  058%=      5-min Rain = 0
KST1 091945Z 35005KT 07/M01 A3034 RMK A01 T00711009  RH  057%=      5-min Rain = 0
KST1 091950Z 36007KT 07/M01 A3034 RMK A01 T00721008  RH  057%=      5-min Rain = 0
KST1 091955Z 00007KT 07/M01 A3034 RMK A01 T00711010  RH  057%=      5-min Rain = 0
KST1 092000Z 35006KT 07/M01 A3034 RMK A01 T00721007  RH  058%=      5-min Rain = 0
KST1 092005Z 36005KT 07/M01 A3034 RMK A01 T00741005  RH  058%=      5-min Rain = 0
KST1 092010Z 35006KT 08/00 A3034 RMK A01 T007500-0  RH  059%=      5-min Rain = 0
KST1 092015Z 36007KT 08/00 A3034 RMK A01 T00770002  RH  060%=      5-min Rain = 0
KST1 092020Z 35008KT 07/M01 A3034 RMK A01 T00741005  RH  058%=      5-min Rain = 0
KST1 092025Z 00007KT 08/M00 A3033 RMK A01 T00751003  RH  058%=      5-min Rain = 0
KST1 092030Z 36006KT 07/M01 A3033 RMK A01 T00741005  RH  058%=      5-min Rain = 0
KST1 092035Z 00008KT 08/M00 A3033 RMK A01 T00761001  RH  059%=      5-min Rain = 0
KST1 092040Z 35008KT 08/00 A3033 RMK A01 T007600-0  RH  059%=      5-min Rain = 0
KST1 092045Z 34007KT 08/M00 A3033 RMK A01 T00771003  RH  058%=      5-min Rain = 0
KST1 092050Z 33007KT 08/M00 A3033 RMK A01 T00781002  RH  058%=      5-min Rain = 0
KST1 092055Z 36007KT 08/M01 A3033 RMK A01 T00761005  RH  057%=      5-min Rain = 0
KST1 092100Z 35007KT 08/M00 A3033 RMK A01 T00771001  RH  058%=      5-min Rain = 0
KST1 092105Z 34004KT 08/M00 A3033 RMK A01 T00771004  RH  057%=      5-min Rain = 0
KST1 092110Z 34007KT 08/00 A3033 RMK A01 T00800002  RH  059%=      5-min Rain = 0
KST1 092115Z 00006KT 08/00 A3033 RMK A01 T00790001  RH  058%=      5-min Rain = 0
KST1 092120Z 33004KT 08/M00 A3033 RMK A01 T00791002  RH  057%=      5-min Rain = 0
KST1 092125Z 32005KT 08/00 A3033 RMK A01 T00810000  RH  058%=      5-min Rain = 0
KST1 092130Z 34005KT 08/00 A3033 RMK A01 T00810001  RH  058%=      5-min Rain = 0
KST1 092135Z 32005KT 08/00 A3033 RMK A01 T00800000  RH  058%=      5-min Rain = 0
KST1 092140Z 34005KT 08/00 A3033 RMK A01 T008000-0  RH  057%=      5-min Rain = 0
KST1 092145Z 34005KT 08/00 A3033 RMK A01 T00800001  RH  058%=      5-min Rain = 0
KST1 092150Z 34005KT 08/M00 A3033 RMK A01 T00801003  RH  056%=      5-min Rain = 0
KST1 092155Z 33006KT 08/M00 A3033 RMK A01 T00801001  RH  057%=      5-min Rain = 0
KST1 092200Z 31007KT 08/00 A3033 RMK A01 T00810000  RH  058%=      5-min Rain = 0
KST1 092205Z 32005KT 08/M00 A3033 RMK A01 T00811002  RH  057%=      5-min Rain = 0
KST1 092210Z 34007KT 08/00 A3033 RMK A01 T00810002  RH  058%=      5-min Rain = 0
KST1 092215Z 34006KT 08/00 A3033 RMK A01 T00800002  RH  058%=      5-min Rain = 0
KST1 092220Z 32007KT 08/00 A3033 RMK A01 T008000-0  RH  057%=      5-min Rain = 0
KST1 092225Z 33007KT 08/M01 A3033 RMK A01 T00791006  RH  056%=      5-min Rain = 0
KST1 092230Z 34006KT 08/M00 A3033 RMK A01 T00801001  RH  057%=      5-min Rain = 0
KST1 092235Z 33006KT 08/M00 A3033 RMK A01 T00791001  RH  058%=      5-min Rain = 0
KST1 092240Z 33007KT 08/00 A3033 RMK A01 T00800002  RH  058%=      5-min Rain = 0
KST1 092245Z 33007KT 08/M00 A3033 RMK A01 T00781003  RH  057%=      5-min Rain = 0
KST1 092250Z 33008KT 08/00 A3033 RMK A01 T00780000  RH  059%=      5-min Rain = 0
KST1 092255Z 34006KT 08/00 A3033 RMK A01 T00770002  RH  060%=      5-min Rain = 0
KST1 092300Z 34007KT 08/00 A3033 RMK A01 T00750002  RH  060%=      5-min Rain = 0
KST1 092305Z 34006KT 08/00 A3033 RMK A01 T00750002  RH  060%=      5-min Rain = 0
KST1 092310Z 35007KT 07/00 A3033 RMK A01 T00740001  RH  060%=      5-min Rain = 0
KST1 092315Z 35006KT 07/00 A3033 RMK A01 T00720003  RH  062%=      5-min Rain = 0
KST1 092320Z 35007KT 07/00 A3033 RMK A01 T00700000  RH  062%=      5-min Rain = 0
KST1 092325Z 35007KT 07/00 A3033 RMK A01 T00680004  RH  064%=      5-min Rain = 0
KST1 092330Z 35006KT 07/00 A3033 RMK A01 T00660004  RH  065%=      5-min Rain = 0
KST1 092335Z 34006KT 06/01 A3033 RMK A01 T00640006  RH  067%=      5-min Rain = 0
KST1 092340Z 35007KT 06/01 A3033 RMK A01 T00610008  RH  069%=      5-min Rain = 0
KST1 092345Z 35006KT 06/01 A3033 RMK A01 T00590009  RH  071%=      5-min Rain = 0
KST1 092350Z 36005KT 06/01 A3034 RMK A01 T00580009  RH  071%=      5-min Rain = 0
KST1 092355Z 35005KT 06/01 A3034 RMK A01 T00560009  RH  073%=      5-min Rain = 0
KST1 100000Z 35004KT 05/01 A3034 RMK A01 T00530009  RH  074%=      5-min Rain = 0
KST1 100005Z 35004KT 05/01 A3034 RMK A01 T00510010  RH  076%=      5-min Rain = 0
KST1 100010Z 36004KT 05/01 A3034 RMK A01 T00500011  RH  077%=      5-min Rain = 0
KST1 100015Z 00004KT 05/01 A3034 RMK A01 T00490011  RH  077%=      5-min Rain = 0
KST1 100020Z 01003KT 05/01 A3034 RMK A01 T00470011  RH  078%=      5-min Rain = 0
KST1 100025Z 02003KT 05/01 A3034 RMK A01 T00450010  RH  079%=      5-min Rain = 0
KST1 100030Z 02003KT 04/01 A3034 RMK A01 T00440008  RH  078%=      5-min Rain = 0
KST1 100035Z 01003KT 05/01 A3034 RMK A01 T00460007  RH  077%=      5-min Rain = 0
KST1 100040Z 00003KT 05/01 A3035 RMK A01 T00460006  RH  076%=      5-min Rain = 0
KST1 100045Z 01004KT 05/01 A3035 RMK A01 T00460005  RH  076%=      5-min Rain = 0
KST1 100050Z 02004KT 05/00 A3035 RMK A01 T00450004  RH  076%=      5-min Rain = 0
KST1 100055Z 02005KT 04/00 A3035 RMK A01 T00400002  RH  077%=      5-min Rain = 0
KST1 100100Z 02006KT 03/00 A3035 RMK A01 T00340001  RH  079%=      5-min Rain = 0
KST1 100105Z 02006KT 04/00 A3035 RMK A01 T00350002  RH  080%=      5-min Rain = 0
KST1 100110Z 02006KT 03/00 A3035 RMK A01 T00330002  RH  081%=      5-min Rain = 0
KST1 100115Z 02006KT 03/00 A3035 RMK A01 T00330001  RH  081%=      5-min Rain = 0
KST1 100120Z 02007KT 03/00 A3035 RMK A01 T003000-0  RH  082%=      5-min Rain = 0
KST1 100125Z 02006KT 03/00 A3035 RMK A01 T002800-0  RH  083%=      5-min Rain = 0
KST1 100130Z 02006KT 03/00 A3036 RMK A01 T00290001  RH  083%=      5-min Rain = 0
KST1 100135Z 02006KT 03/00 A3036 RMK A01 T00290001  RH  083%=      5-min Rain = 0
KST1 100140Z 02006KT 03/00 A3036 RMK A01 T00290001  RH  083%=      5-min Rain = 0
KST1 100145Z 02006KT 03/M00 A3036 RMK A01 T00271001  RH  083%=      5-min Rain = 0
KST1 100150Z 02007KT 03/00 A3036 RMK A01 T00280000  RH  083%=      5-min Rain = 0
KST1 100155Z 02007KT 03/00 A3036 RMK A01 T00290001  RH  083%=      5-min Rain = 0
KST1 100200Z 03006KT 03/00 A3036 RMK A01 T00300000  RH  082%=      5-min Rain = 0
KST1 100205Z 03005KT 03/M00 A3036 RMK A01 T00271003  RH  082%=      5-min Rain = 0
KST1 100210Z 03005KT 03/M00 A3036 RMK A01 T00261002  RH  083%=      5-min Rain = 0
KST1 100215Z 02005KT 03/00 A3036 RMK A01 T002700-0  RH  083%=      5-min Rain = 0
KST1 100220Z 02005KT 03/00 A3036 RMK A01 T00280001  RH  083%=      5-min Rain = 0
KST1 100225Z 02005KT 03/00 A3037 RMK A01 T00300001  RH  083%=      5-min Rain = 0
KST1 100230Z 02004KT 03/00 A3037 RMK A01 T00290001  RH  083%=      5-min Rain = 0
KST1 100235Z 02004KT 03/00 A3037 RMK A01 T00290001  RH  083%=      5-min Rain = 0
KST1 100240Z 03004KT 03/00 A3037 RMK A01 T00290000  RH  082%=      5-min Rain = 0
KST1 100245Z 03005KT 03/00 A3037 RMK A01 T00300001  RH  082%=      5-min Rain = 0
KST1 100250Z 03005KT 03/00 A3037 RMK A01 T003000-0  RH  082%=      5-min Rain = 0
KST1 100255Z 03005KT 03/M00 A3037 RMK A01 T00271002  RH  082%=      5-min Rain = 0
KST1 100300Z 03006KT 02/M00 A3037 RMK A01 T00241004  RH  083%=      5-min Rain = 0
KST1 100305Z 02006KT 02/M00 A3037 RMK A01 T00241003  RH  084%=      5-min Rain = 0
KST1 100310Z 02006KT 02/M00 A3037 RMK A01 T00231003  RH  084%=      5-min Rain = 0
KST1 100315Z 01005KT 02/M00 A3037 RMK A01 T00241002  RH  084%=      5-min Rain = 0
KST1 100320Z 01004KT 02/M00 A3038 RMK A01 T00211004  RH  085%=      5-min Rain = 0
KST1 100325Z 02003KT 02/M00 A3038 RMK A01 T00201003  RH  086%=      5-min Rain = 0
KST1 100330Z 02002KT 02/M00 A3038 RMK A01 T00201003  RH  086%=      5-min Rain = 0
KST1 100335Z 01002KT 02/M00 A3038 RMK A01 T00191002  RH  087%=      5-min Rain = 0
KST1 100340Z 00002KT 02/M00 A3038 RMK A01 T00201001  RH  087%=      5-min Rain = 0
KST1 100345Z 33002KT 02/M00 A3038 RMK A01 T00201002  RH  087%=      5-min Rain = 0
KST1 100350Z 34002KT 02/M00 A3038 RMK A01 T00211001  RH  086%=      5-min Rain = 0
KST1 100355Z 34001KT 02/M00 A3037 RMK A01 T00211002  RH  086%=      5-min Rain = 0
KST1 100400Z 34002KT 02/M00 A3038 RMK A01 T00221002  RH  085%=      5-min Rain = 0
KST1 100405Z 30002KT 02/M01 A3038 RMK A01 T00181007  RH  084%=      5-min Rain = 0
KST1 100410Z 27002KT 01/M01 A3038 RMK A01 T00111011  RH  086%=      5-min Rain = 0
KST1 100415Z 25002KT 01/M01 A3038 RMK A01 T00131008  RH  087%=      5-min Rain = 0
KST1 100420Z 25002KT 01/M01 A3038 RMK A01 T00121008  RH  088%=      5-min Rain = 0
KST1 100425Z 25001KT 01/M01 A3038 RMK A01 T00101010  RH  088%=      5-min Rain = 0
KST1 100430Z 25000KT 01/M01 A3038 RMK A01 T00091009  RH  088%=      5-min Rain = 0
KST1 100435Z 25000KT 01/M01 A3038 RMK A01 T00091009  RH  089%=      5-min Rain = 0
KST1 100440Z 00000KT 01/M01 A3038 RMK A01 T00131005  RH  089%=      5-min Rain = 0
KST1 100445Z 17000KT 01/M01 A3038 RMK A01 T00131005  RH  089%=      5-min Rain = 0
KST1 100450Z 12001KT 01/M01 A3039 RMK A01 T00061012  RH  089%=      5-min Rain = 0
KST1 100455Z 10000KT 01/M01 A3039 RMK A01 T00061011  RH  089%=      5-min Rain = 0
KST1 100500Z 02002KT 01/M01 A3039 RMK A01 T00051012  RH  089%=      5-min Rain = 0
KST1 100505Z 02002KT 01/M01 A3039 RMK A01 T00061010  RH  090%=      5-min Rain = 0
KST1 100510Z 01002KT 00/M01 A3039 RMK A01 T00041012  RH  090%=      5-min Rain = 0
KST1 100515Z 02002KT 00/M01 A3039 RMK A01 T00031012  RH  090%=      5-min Rain = 0
KST1 100520Z 02002KT 00/M01 A3039 RMK A01 T00031012  RH  091%=      5-min Rain = 0
KST1 100525Z 02002KT 00/M01 A3039 RMK A01 T00041010  RH  091%=      5-min Rain = 0
KST1 100530Z 04002KT 00/M01 A3039 RMK A01 T00011014  RH  091%=      5-min Rain = 0
KST1 100535Z 05002KT 00/M01 A3039 RMK A01 T00031011  RH  091%=      5-min Rain = 0
KST1 100540Z 05001KT 00/M01 A3039 RMK A01 T00021011  RH  091%=      5-min Rain = 0
KST1 100545Z 05001KT 00/M01 A3039 RMK A01 T00021011  RH  092%=      5-min Rain = 0
KST1 100550Z 05001KT 00/M01 A3039 RMK A01 T00031010  RH  092%=      5-min Rain = 0
KST1 100555Z 05000KT 01/M01 A3039 RMK A01 T00051008  RH  092%=      5-min Rain = 0

Page generated in 0.0089 seconds.